Time;durP1;ratioP1;P1;durP2;ratioP2;P2;SDS_P1;SDS_P2;PMS_P1;PMS_P2;Temp;Humidity;BMP_temperature;BMP_pressure;BME280_temperature;BME280_humidity;BME280_pressure;Samples;Min_cycle;Max_cycle;Signal;HPM_P1;HPM_P2
2023/06/24 10:58:23;;;;;;;13.50;10.60;;;;;;;19.57;84.31;100841.48;133245;1274;23900;-82
2023/06/24 12:03:19;;;;;;;9.50;8.50;;;;;;;23.02;73.70;100793.17;133302;1275;22612;-80
2023/06/24 12:06:34;;;;;;;;;;;;;;;;;;;;;
2023/06/24 12:19:50;;;;;;;;;;;;;;;;;;;;;
2023/06/24 12:24:17;;;;;;;;;;;;;;;;;;;;;
2023/06/24 12:28:37;;;;;;;9.20;7.90;;;;;;;23.98;68.90;100757.73;131894;1281;22585;-78
2023/06/24 12:31:39;;;;;;;;;;;;;;;;;;;;;
2023/06/24 12:34:55;;;;;;;12.00;7.80;;;;;;;24.28;68.76;100747.52;137204;1267;22360;-78
2023/06/24 12:42:39;;;;;;;10.10;7.70;;;;;;;24.29;67.05;100749.72;137155;1275;23179;-75
2023/06/24 12:46:41;;;;;;;;;;;;;;;;;;;;;
2023/06/24 12:51:09;;;;;;;8.30;7.10;;;;;;;24.22;66.67;100746.98;136948;1275;22262;-77
2023/06/24 12:54:53;;;;;;;;;;;;;;;;;;;;;
2023/06/24 12:58:29;;;;;;;11.10;7.40;;;;;;;24.36;65.84;100735.64;137015;1275;23279;-81
2023/06/24 13:06:18;;;;;;;9.70;6.40;;;;;;;24.56;65.30;100735.92;137046;1275;22445;-80
2023/06/24 13:13:53;;;;;;;7.60;6.80;;;;;;;24.73;64.48;100729.16;137018;1275;22448;-80
2023/06/24 13:17:07;;;;;;;8.30;7.40;;;;;;;24.85;64.18;100725.55;137153;1275;23052;-78
2023/06/24 13:20:24;;;;;;;9.30;6.80;;;;;;;24.84;63.70;100722.72;137069;1275;23376;-79
2023/06/24 13:24:20;;;;;;;;;;;;;;;;;;;;;
2023/06/24 13:27:55;;;;;;;7.90;7.10;;;;;;;24.65;63.09;100717.52;137169;1275;23176;-80
2023/06/24 13:35:57;;;;;;;10.30;7.20;;;;;;;24.53;62.82;100719.32;137156;1275;22124;-79
2023/06/24 13:39:38;;;;;;;;;;;;;;;;;;;;;
2023/06/24 13:43:38;;;;;;;7.30;6.40;;;;;;;24.68;62.73;100714.27;137148;1275;22237;-80
2023/06/24 13:47:31;;;;;;;7.70;6.40;;;;;;;24.72;62.39;100714.38;137009;1275;22433;-80
2023/06/24 13:54:19;;;;;;;;;;;;;;;;;;;;;
2023/06/24 13:58:31;;;;;;;7.80;6.70;;;;;;;24.94;61.19;100707.36;137140;1275;23167;-80
2023/06/24 14:02:13;;;;;;;;;;;;;;;;;;;;;
2023/06/24 14:05:42;;;;;;;6.90;6.20;;;;;;;24.99;59.84;100697.54;137102;1275;22367;-81
2023/06/24 14:10:10;;;;;;;13.40;7.10;;;;;;;25.04;60.08;100694.48;137135;1275;22357;-81
2023/06/24 14:13:11;;;;;;;9.50;6.10;;;;;;;25.02;59.87;100696.95;137107;1275;22373;-78
2023/06/24 14:16:31;;;;;;;6.60;5.80;;;;;;;25.07;60.00;100693.16;137190;1275;22383;-80
2023/06/24 14:20:20;;;;;;;7.50;6.10;;;;;;;25.08;59.52;100693.05;137126;1275;22491;-79
2023/06/24 14:24:02;;;;;;;10.80;6.00;;;;;;;25.00;58.98;100692.25;137171;1275;22230;-80
2023/06/24 14:27:27;;;;;;;8.00;6.20;;;;;;;24.92;58.94;100686.05;137047;1275;23618;-77
2023/06/24 14:31:29;;;;;;;7.00;6.10;;;;;;;24.80;58.84;100688.08;137170;1275;22370;-78
2023/06/24 14:34:43;;;;;;;8.50;6.10;;;;;;;24.53;58.48;100689.15;137166;1275;22424;-78
2023/06/24 14:38:48;;;;;;;8.30;6.30;;;;;;;24.23;58.76;100693.92;137128;1275;22366;-78
2023/06/24 14:42:03;;;;;;;8.80;6.60;;;;;;;24.06;59.20;100690.56;137146;1275;22468;-78
2023/06/24 14:45:18;;;;;;;;;;;;;;;;;;;;;
2023/06/24 14:48:37;;;;;;;6.80;6.10;;;;;;;24.07;60.01;100676.55;137197;1275;22574;-77
2023/06/24 14:51:56;;;;;;;6.70;5.90;;;;;;;24.32;60.04;100674.89;137150;1275;22387;-77
2023/06/24 14:55:52;;;;;;;;;;;;;;;;;;;;;
2023/06/24 14:59:13;;;;;;;7.00;5.50;;;;;;;24.87;59.18;100673.70;137190;1275;22399;-76
2023/06/24 15:02:47;;;;;;;8.70;6.50;;;;;;;25.03;57.73;100674.96;137128;1275;22074;-75
2023/06/24 15:05:56;;;;;;;6.70;6.00;;;;;;;25.06;57.09;100670.39;137171;1275;22074;-76
2023/06/24 15:09:29;;;;;;;7.90;5.80;;;;;;;24.96;56.60;100668.52;137121;1271;23231;-77
2023/06/24 15:12:37;;;;;;;9.20;6.20;;;;;;;24.82;56.32;100666.02;137163;1275;22470;-78
2023/06/24 15:15:56;;;;;;;10.00;6.00;;;;;;;24.70;56.06;100665.95;137091;1275;22360;-77
2023/06/24 15:19:10;;;;;;;;;;;;;;;;;;;;;
2023/06/24 15:22:21;;;;;;;8.30;5.70;;;;;;;24.49;55.98;100666.04;137180;1275;22391;-75
2023/06/24 15:25:35;;;;;;;6.20;5.60;;;;;;;24.43;55.48;100661.46;137151;1275;22463;-79
2023/06/24 15:29:02;;;;;;;;;;;;;;;;;;;;;
2023/06/24 15:32:34;;;;;;;8.20;6.50;;;;;;;24.33;55.91;100666.92;137176;1275;22361;-78
2023/06/24 15:36:03;;;;;;;;;;;;;;;;;;;;;
2023/06/24 15:43:20;;;;;;;6.40;5.80;;;;;;;24.04;57.02;100662.77;137025;1275;23131;-80
2023/06/24 15:46:56;;;;;;;8.20;6.10;;;;;;;23.97;57.65;100661.56;137002;1274;22219;-79
2023/06/24 15:50:33;;;;;;;7.90;6.50;;;;;;;23.93;57.80;100660.94;137142;1275;22435;-81
2023/06/24 15:54:12;;;;;;;;;;;;;;;;;;;;;
2023/06/24 15:57:46;;;;;;;9.60;6.70;;;;;;;23.80;58.31;100659.83;137116;1275;23302;-80
2023/06/24 16:00:47;;;;;;;8.60;6.00;;;;;;;23.77;58.14;100662.03;137055;1275;22387;-79
2023/06/24 16:04:54;;;;;;;7.30;6.50;;;;;;;23.79;58.31;100657.48;137182;1275;23039;-79
2023/06/24 16:07:41;;;;;;;6.40;5.80;;;;;;;23.84;58.27;100652.86;137063;1275;22364;-78
2023/06/24 16:10:42;;;;;;;;;;;;;;;23.84;58.17;100653.98;137244;1275;22408;-78
2023/06/24 16:13:47;;;;;;;9.20;5.70;;;;;;;23.83;57.60;100650.23;137025;1275;22398;-77
2023/06/24 16:17:00;;;;;;;9.60;6.00;;;;;;;23.81;57.09;100651.31;137025;1268;22991;-76
2023/06/24 16:20:38;;;;;;;9.40;5.90;;;;;;;23.79;56.95;100648.09;137012;1275;22833;-75
2023/06/24 16:23:40;;;;;;;6.70;6.00;;;;;;;23.78;56.76;100648.45;137108;1275;22452;-76
2023/06/24 16:27:02;;;;;;;7.50;6.40;;;;;;;23.77;56.40;100649.52;137139;1275;22524;-76
2023/06/24 16:30:05;;;;;;;8.00;6.00;;;;;;;23.79;56.50;100647.98;137152;1275;22473;-76
2023/06/24 16:33:17;;;;;;;9.80;5.90;;;;;;;23.73;56.09;100648.17;137151;1275;22396;-77
2023/06/24 16:36:41;;;;;;;5.80;5.10;;;;;;;23.67;55.78;100646.05;137112;1275;22441;-76
2023/06/24 16:39:52;;;;;;;7.10;5.80;;;;;;;23.58;55.69;100646.45;137188;1271;23371;-76
2023/06/24 16:42:58;;;;;;;7.00;5.60;;;;;;;23.48;55.39;100643.83;137070;1275;22372;-75
2023/06/24 16:46:10;;;;;;;6.90;5.90;;;;;;;23.43;55.46;100643.77;137202;1275;23477;-75
2023/06/24 16:49:51;;;;;;;;;;;;;;;;;;;;;
2023/06/24 16:52:55;;;;;;;8.40;6.20;;;;;;;23.29;55.64;100645.58;137165;1275;22478;-77
2023/06/24 16:56:19;;;;;;;6.80;5.70;;;;;;;23.24;55.74;100647.05;137171;1275;22426;-77
2023/06/24 16:59:22;;;;;;;6.50;5.70;;;;;;;23.19;55.88;100647.66;137165;1275;22443;-76
2023/06/24 17:02:23;;;;;;;7.30;5.80;;;;;;;23.16;56.08;100648.02;137155;1275;23077;-77
2023/06/24 17:05:27;;;;;;;6.70;6.10;;;;;;;23.10;55.96;100648.14;137082;1275;22367;-77
2023/06/24 17:08:28;;;;;;;9.40;6.10;;;;;;;23.06;56.27;100646.06;137198;1275;22379;-77
2023/06/24 17:11:44;;;;;;;7.40;6.20;;;;;;;23.04;56.54;100642.18;137167;1275;22495;-77
2023/06/24 17:15:11;;;;;;;6.70;6.00;;;;;;;23.02;56.43;100641.05;137204;1275;22360;-77
2023/06/24 17:18:23;;;;;;;7.20;6.20;;;;;;;22.99;56.80;100636.70;137132;1275;22428;-77
2023/06/24 17:21:40;;;;;;;8.20;6.60;;;;;;;22.93;56.85;100635.89;137012;1275;22532;-77
2023/06/24 17:24:47;;;;;;;6.60;5.90;;;;;;;22.87;56.96;100635.64;137051;1275;22394;-77
2023/06/24 17:27:51;;;;;;;6.60;5.90;;;;;;;22.83;57.26;100634.13;137012;1275;23266;-77
2023/06/24 17:31:14;;;;;;;9.20;6.80;;;;;;;22.80;57.45;100634.13;137121;1275;22429;-77
2023/06/24 17:34:22;;;;;;;9.00;6.50;;;;;;;22.75;57.75;100636.05;137189;1275;22406;-77
2023/06/24 17:37:48;;;;;;;8.80;6.60;;;;;;;22.67;57.91;100631.83;137103;1275;22442;-78
2023/06/24 17:41:16;;;;;;;9.20;6.30;;;;;;;22.56;57.86;100628.58;137156;1275;22384;-77
2023/06/24 17:44:20;;;;;;;10.30;6.80;;;;;;;22.47;58.03;100627.33;137112;1275;22392;-77
2023/06/24 17:47:51;;;;;;;;;;;;;;;;;;;;;
2023/06/24 17:51:13;;;;;;;7.50;6.50;;;;;;;22.40;58.47;100628.73;137188;1275;22406;-76
2023/06/24 17:54:31;;;;;;;11.40;6.90;;;;;;;22.35;58.51;100631.70;137036;1275;22443;-76
2023/06/24 17:58:23;;;;;;;;;;;;;;;;;;;;;
2023/06/24 18:01:53;;;;;;;9.60;6.20;;;;;;;22.26;59.00;100629.67;137172;1271;23142;-75
2023/06/24 18:05:02;;;;;;;;;;;;;;;22.21;59.00;100629.77;137092;1275;22424;-74
2023/06/24 18:08:19;;;;;;;;;;;;;;;;;;;;;
2023/06/24 18:11:31;;;;;;;11.30;7.30;;;;;;;22.04;59.44;100632.73;137111;1275;22432;-78
2023/06/24 18:14:53;;;;;;;11.00;7.20;;;;;;;21.94;59.60;100632.34;137143;1275;22357;-76
2023/06/24 18:18:22;;;;;;;9.80;7.20;;;;;;;21.83;59.84;100631.73;137188;1275;22553;-76
2023/06/24 18:21:42;;;;;;;9.90;6.60;;;;;;;21.73;60.11;100631.70;137149;1275;23217;-74
2023/06/24 18:25:18;;;;;;;9.50;6.80;;;;;;;21.61;60.38;100631.73;137099;1275;22417;-73
2023/06/24 18:29:24;;;;;;;10.20;8.00;;;;;;;21.50;60.53;100632.45;137175;1275;22363;-77
2023/06/24 18:32:32;;;;;;;12.10;8.60;;;;;;;21.37;60.75;100629.77;137082;1275;22547;-74
2023/06/24 18:40:09;;;;;;;13.80;9.50;;;;;;;21.21;61.69;100641.80;137151;1275;22390;-74
2023/06/24 18:43:29;;;;;;;;;;;;;;;;;;;;;
2023/06/24 18:46:43;;;;;;;14.40;9.70;;;;;;;21.02;62.34;100641.74;137082;1275;22404;-74
2023/06/24 18:49:47;;;;;;;;;;;;;;;20.93;62.73;100646.16;137224;1275;22389;-73
2023/06/24 18:53:10;;;;;;;13.90;9.30;;;;;;;20.82;63.44;100645.55;137131;1275;22420;-74
2023/06/24 18:57:01;;;;;;;12.40;9.70;;;;;;;20.65;63.63;100651.54;137159;1275;22367;-73
2023/06/24 19:00:35;;;;;;;15.20;9.00;;;;;;;20.50;64.17;100653.48;137102;1275;23360;-73
2023/06/24 19:04:04;;;;;;;12.10;9.20;;;;;;;20.41;64.50;100651.24;137146;1275;22360;-71
2023/06/24 19:07:31;;;;;;;11.30;9.20;;;;;;;20.31;64.78;100655.48;137208;1275;22542;-71
2023/06/24 19:10:41;;;;;;;15.50;9.00;;;;;;;20.18;65.00;100658.02;137125;1275;22394;-72
2023/06/24 19:14:15;;;;;;;13.40;8.90;;;;;;;20.08;65.35;100659.78;137137;1275;23232;-72
2023/06/24 19:17:24;;;;;;;10.70;9.00;;;;;;;19.96;65.67;100661.27;137187;1275;22486;-71
2023/06/24 19:20:28;;;;;;;10.40;8.90;;;;;;;19.84;65.89;100663.92;137166;1275;22373;-72
2023/06/24 19:23:52;;;;;;;16.30;9.00;;;;;;;19.72;66.23;100666.26;137189;1275;22448;-72
2023/06/24 19:27:25;;;;;;;;;;;;;;;;;;;;;
2023/06/24 19:30:49;;;;;;;14.90;8.90;;;;;;;19.43;67.00;100670.54;137033;1275;22458;-72
2023/06/24 19:33:55;;;;;;;10.70;9.10;;;;;;;19.34;67.37;100672.52;137163;1275;22321;-72
2023/06/24 19:36:56;;;;;;;13.70;9.30;;;;;;;19.25;67.64;100672.70;137183;1275;22365;-72
2023/06/24 19:40:02;;;;;;;12.60;10.70;;;;;;;19.14;67.84;100672.90;137147;1275;22368;-72
2023/06/24 19:43:09;;;;;;;14.50;10.30;;;;;;;18.99;68.12;100673.61;137142;1275;22385;-72
2023/06/24 19:46:10;;;;;;;10.70;9.60;;;;;;;18.86;68.49;100672.17;137126;1275;23075;-72
2023/06/24 19:49:17;;;;;;;15.90;10.90;;;;;;;18.77;68.77;100673.87;137157;1275;22494;-73
2023/06/24 19:52:21;;;;;;;13.90;10.10;;;;;;;18.69;69.03;100677.07;137202;1275;22442;-72
2023/06/24 19:55:46;;;;;;;17.50;9.80;;;;;;;18.60;69.35;100678.27;137005;1275;22504;-72
2023/06/24 19:59:05;;;;;;;12.60;9.50;;;;;;;18.50;69.58;100675.70;137141;1275;22454;-72
2023/06/24 20:02:09;;;;;;;12.80;9.80;;;;;;;18.42;69.84;100678.50;137182;1275;22426;-72
2023/06/24 20:05:31;;;;;;;14.80;9.40;;;;;;;18.35;70.01;100682.66;137243;1275;22430;-72
2023/06/24 20:08:32;;;;;;;12.70;9.60;;;;;;;18.23;70.10;100680.57;137189;1275;23144;-72
2023/06/24 20:11:33;;;;;;;18.40;9.80;;;;;;;18.11;70.57;100681.58;137158;1275;22433;-73
2023/06/24 20:14:46;;;;;;;12.90;10.10;;;;;;;18.00;70.91;100679.92;137147;1275;22399;-72
2023/06/24 20:18:00;;;;;;;19.70;10.50;;;;;;;17.91;71.23;100680.65;137239;1275;22113;-72
2023/06/24 20:21:04;;;;;;;12.40;9.60;;;;;;;17.83;71.36;100677.32;137156;1265;22356;-73
2023/06/24 20:24:09;;;;;;;15.60;10.10;;;;;;;17.78;71.74;100678.02;137159;1275;23190;-72
2023/06/24 20:27:13;;;;;;;16.90;11.60;;;;;;;17.73;72.08;100675.47;137216;1274;22421;-72
2023/06/24 20:30:17;;;;;;;22.40;12.80;;;;;;;17.65;72.33;100675.55;137125;1275;23730;-72
2023/06/24 20:33:22;;;;;;;18.60;13.90;;;;;;;17.59;72.69;100673.33;137161;1275;22480;-72
2023/06/24 20:36:23;;;;;;;20.70;13.20;;;;;;;17.53;72.94;100674.26;137181;1275;22430;-72
2023/06/24 20:39:28;;;;;;;20.10;14.40;;;;;;;17.49;73.20;100677.45;136986;1275;22436;-72
2023/06/24 20:42:34;;;;;;;15.50;12.80;;;;;;;17.43;73.38;100675.93;137058;1275;23007;-75
2023/06/24 20:45:35;;;;;;;20.50;13.20;;;;;;;17.34;73.50;100672.26;137159;1275;23192;-76
2023/06/24 20:49:05;;;;;;;20.40;13.60;;;;;;;17.25;73.61;100673.27;137157;1275;23229;-75
2023/06/24 20:52:15;;;;;;;16.50;12.30;;;;;;;17.19;73.83;100676.09;137147;1275;22439;-75
2023/06/24 20:55:47;;;;;;;;;;;;;;;;;;;;;
2023/06/24 20:58:50;;;;;;;15.20;11.60;;;;;;;17.07;74.13;100675.52;137179;1275;23036;-76
2023/06/24 21:01:59;;;;;;;18.60;11.70;;;;;;;17.01;74.40;100673.03;137224;1275;22374;-76
2023/06/24 21:05:06;;;;;;;16.40;13.50;;;;;;;16.98;74.48;100676.84;137147;1275;23023;-76
2023/06/24 21:08:15;;;;;;;18.50;13.10;;;;;;;16.91;74.60;100674.70;137122;1275;22381;-77
2023/06/24 21:11:20;;;;;;;21.40;13.00;;;;;;;16.86;74.77;100670.48;137127;1275;22370;-75
2023/06/24 21:14:43;;;;;;;17.20;12.80;;;;;;;16.83;75.05;100669.73;137079;1275;22122;-75
2023/06/24 21:18:12;;;;;;;22.10;12.30;;;;;;;16.78;75.23;100668.52;137185;1275;22357;-76
2023/06/24 21:21:34;;;;;;;;;;;;;;;;;;;;;
2023/06/24 21:24:38;;;;;;;20.90;13.60;;;;;;;16.66;75.67;100671.77;137180;1275;22394;-75
2023/06/24 21:27:48;;;;;;;19.90;14.70;;;;;;;16.62;75.70;100670.80;137179;1275;22465;-76
2023/06/24 21:31:02;;;;;;;;;;;;;;;;;;;;;
2023/06/24 21:34:05;;;;;;;18.80;13.50;;;;;;;16.56;75.77;100670.33;137158;1275;23200;-75
2023/06/24 21:37:06;;;;;;;24.50;13.20;;;;;;;16.50;75.68;100671.55;137122;1275;22401;-76
2023/06/24 21:40:13;;;;;;;18.40;13.60;;;;;;;16.43;75.81;100676.06;137155;1275;22380;-76
2023/06/24 21:43:18;;;;;;;15.70;11.90;;;;;;;16.40;75.95;100681.34;137205;1275;22378;-76
2023/06/24 21:46:37;;;;;;;19.90;12.10;;;;;;;16.34;75.98;100681.98;137179;1275;22457;-75
2023/06/24 21:49:43;;;;;;;17.20;12.10;;;;;;;16.31;76.26;100682.38;137164;1275;22434;-76
2023/06/24 21:52:47;;;;;;;15.90;12.20;;;;;;;16.30;76.37;100683.19;137168;1275;22601;-76
2023/06/24 21:55:48;;;;;;;18.60;12.60;;;;;;;16.29;76.43;100681.81;137054;1273;22466;-77
2023/06/24 21:59:04;;;;;;;17.10;11.90;;;;;;;16.24;76.55;100678.23;137192;1275;22442;-76
2023/06/24 22:02:36;;;;;;;17.90;12.50;;;;;;;16.20;76.68;100680.33;137175;1275;22375;-76
2023/06/24 22:05:40;;;;;;;15.20;12.40;;;;;;;16.16;76.68;100684.98;137141;1275;23148;-78
2023/06/24 22:12:28;;;;;;;19.10;12.10;;;;;;;16.04;76.79;100684.80;137153;1275;22419;-76
2023/06/24 22:16:16;;;;;;;;;;;;;;;;;;;;;
2023/06/24 22:19:43;;;;;;;20.10;11.00;;;;;;;15.89;76.63;100683.64;137176;1275;22488;-75
2023/06/24 22:23:23;;;;;;;16.20;12.20;;;;;;;15.82;77.10;100690.59;137208;1275;22407;-75
2023/06/24 22:26:26;;;;;;;23.60;13.40;;;;;;;15.80;77.43;100693.90;137176;1275;22496;-76
2023/06/24 22:29:45;;;;;;;15.00;12.50;;;;;;;15.75;77.53;100692.18;137123;1275;22410;-76
2023/06/24 22:33:02;;;;;;;18.40;12.00;;;;;;;15.68;77.56;100691.34;137185;1275;22356;-75
2023/06/24 22:36:04;;;;;;;19.60;12.30;;;;;;;15.62;77.66;100691.20;137180;1275;22401;-75
2023/06/24 22:39:07;;;;;;;20.20;13.10;;;;;;;15.57;77.80;100687.52;137177;1275;22363;-77
2023/06/24 22:42:20;;;;;;;19.70;12.40;;;;;;;15.54;78.02;100686.42;137134;1275;22436;-76
2023/06/24 22:46:07;;;;;;;;;;;;;;;;;;;;;
2023/06/24 22:49:16;;;;;;;17.30;11.40;;;;;;;15.50;78.21;100692.33;137173;1275;22444;-75
2023/06/24 22:52:44;;;;;;;23.10;12.40;;;;;;;15.43;78.10;100690.59;137154;1275;22362;-76
2023/06/24 22:56:08;;;;;;;16.30;12.40;;;;;;;15.38;78.21;100691.96;137173;1275;22418;-75
2023/06/24 22:59:36;;;;;;;24.40;13.30;;;;;;;15.31;78.42;100689.02;137158;1275;22370;-75
2023/06/24 23:03:10;;;;;;;21.90;11.80;;;;;;;15.26;78.48;100689.81;137191;1275;22371;-75
2023/06/24 23:07:11;;;;;;;18.20;11.80;;;;;;;15.20;78.60;100694.62;137162;1275;22478;-76
2023/06/24 23:10:37;;;;;;;20.30;13.30;;;;;;;15.13;78.71;100692.95;137008;1275;23119;-78
2023/06/24 23:14:04;;;;;;;18.50;13.30;;;;;;;15.08;78.76;100693.86;137185;1275;22469;-74
2023/06/24 23:17:49;;;;;;;18.80;13.00;;;;;;;15.01;78.64;100691.56;137187;1275;22619;-76
2023/06/24 23:21:15;;;;;;;18.20;13.10;;;;;;;14.92;78.70;100692.95;133019;1275;5389061;-75
2023/06/24 23:24:29;;;;;;;19.40;13.40;;;;;;;14.84;78.97;100691.75;137126;1275;22399;-75
2023/06/24 23:27:36;;;;;;;21.00;14.10;;;;;;;14.78;79.06;100689.39;137185;1275;23051;-77
2023/06/24 23:30:45;;;;;;;21.00;14.00;;;;;;;14.73;79.21;100686.36;137152;1272;22348;-75
2023/06/24 23:34:14;;;;;;;24.60;13.80;;;;;;;14.69;79.27;100687.61;137260;1275;22366;-75
2023/06/24 23:37:22;;;;;;;26.10;15.10;;;;;;;14.64;79.52;100686.12;137100;1275;22550;-75
2023/06/24 23:40:28;;;;;;;36.20;15.40;;;;;;;14.57;79.99;100691.84;137166;1275;23128;-75
2023/06/24 23:43:49;;;;;;;31.40;16.00;;;;;;;14.53;80.30;100692.71;137187;1275;23084;-76
2023/06/24 23:47:08;;;;;;;;;;;;;;;;;;;;;
2023/06/24 23:50:34;;;;;;;27.80;16.20;;;;;;;14.49;80.34;100687.02;137179;1275;22345;-74
2023/06/24 23:54:10;;;;;;;;;;;;;;;;;;;;;
2023/06/24 23:57:29;;;;;;;20.80;15.50;;;;;;;14.40;80.16;100687.67;137228;1275;22365;-74
